Latest Weather Observations for Lochington

IDQ60801

Issued at 4:32 pm EST Tuesday 27 September 2016 (issued every 30 minutes, with the page automatically refreshed every 10 minutes)

About weather observations | Map of weather stations | Latest weather observations for QLD | Other Formats
Station Details ID: 035139 Name: LOCHINGTON Lat: -23.94 Lon: 147.53 Height: 267.19 m
Data from the previous 72 hours. | See also: Recent months at Lochington
Date/Time
EST
Temp
°C
App
Temp
°C
Dew
Point
°C
Rel
Hum
%
Delta-T
°C
Wind Press
QNH
hPa
Press
MSL
hPa
Rain since
9am
mm
Dir  Spd
km/h
Gust
km/h
Spd
kts
Gust
kts
27/04:30pm 24.9 21.1 1.7 22 11.2 SSW 11 22 6 12 1014.5 1013.6 0.0
27/04:00pm 24.9 21.6 0.4 20 11.5 SSW 7 15 4 8 1014.4 1013.5 0.0
27/03:30pm 25.4 22.1 2.2 22 11.3 SW 9 17 5 9 1014.2 1013.3 0.0
27/03:00pm 24.6 21.4 3.3 25 10.5 SSW 9 15 5 8 1014.7 1013.8 0.0
27/02:30pm 24.6 21.2 3.8 26 10.4 SSW 11 20 6 11 1015.2 1014.3 0.0
27/02:00pm 24.6 22.3 4.9 28 10.0 WNW 6 11 3 6 1015.1 1014.2 0.0
27/01:30pm 24.4 23.1 6.2 31 9.5 ESE 2 4 1 2 1015.6 1014.7 0.0
27/01:00pm 24.5 22.6 6.7 32 9.3 SW 6 9 3 5 1016.0 1015.1 0.0
27/12:30pm 23.8 22.1 6.1 32 9.2 E 4 6 2 3 1016.3 1015.3 0.0
27/12:00pm 23.9 21.6 5.8 31 9.3 ESE 7 13 4 7 1016.6 1015.6 0.0
27/11:30am 24.4 22.1 7.5 34 9.0 SE 9 17 5 9 1017.3 1016.4 0.0
27/11:00am 22.6 20.7 9.0 42 7.4 S 9 17 5 9 1017.9 1017.0 0.0
27/10:30am 22.1 19.8 8.9 43 7.1 S 11 17 6 9 1018.2 1017.3 0.0
27/10:00am 21.5 18.9 7.7 41 7.2 S 11 17 6 9 1018.0 1017.1 0.0
27/09:30am 21.9 22.0 11.6 52 5.8 WSW 2 4 1 2 1018.1 1017.2 0.0
27/09:00am 20.3 20.5 10.7 54 5.3 CALM 0 4 0 2 1018.3 1017.4 0.0
27/08:30am 18.7 18.4 11.3 62 4.1 S 4 6 2 3 1018.0 1017.1 0.0
27/08:00am 17.4 16.5 10.5 64 3.7 SW 6 13 3 7 1018.3 1017.4 0.0
27/07:30am 16.0 16.2 11.8 76 2.3 WSW 2 6 1 3 1017.5 1016.6 0.0
27/07:00am 14.0 14.0 11.0 82 1.6 SW 2 4 1 2 1017.0 1016.0 0.0
27/06:30am 12.4 11.8 10.3 87 1.1 W 4 4 2 2 1016.6 1015.6 0.0
27/06:00am 11.8 10.9 9.4 85 1.2 W 4 6 2 3 1015.8 1014.9 0.0
27/05:30am 12.2 11.6 8.9 80 1.7 SSW 2 2 1 1 1015.2 1014.3 0.0
27/05:00am 12.1 11.2 9.1 82 1.5 WSW 4 6 2 3 1015.8 1014.9 0.0
27/04:30am 12.2 11.2 9.0 81 1.6 WSW 4 6 2 3 1014.9 1014.0 0.0
27/04:00am 12.6 11.7 9.1 79 1.8 SW 4 6 2 3 1014.7 1013.8 0.0
27/03:30am 13.3 12.7 9.0 75 2.2 WSW 2 4 1 2 1014.5 1013.6 0.0
27/03:00am 12.9 12.0 9.2 78 1.9 WSW 4 4 2 2 1014.5 1013.6 0.0
27/02:30am 13.0 12.0 8.9 76 2.1 WSW 4 6 2 3 1014.2 1013.3 0.0
27/02:00am 13.6 12.6 8.7 72 2.5 WSW 4 4 2 2 1014.3 1013.4 0.0
27/01:30am 13.6 12.2 8.9 73 2.4 W 6 7 3 4 1014.7 1013.8 0.0
27/01:00am 14.7 13.6 8.6 67 3.1 W 4 4 2 2 1014.6 1013.7 0.0
27/12:30am 15.5 14.5 8.7 64 3.5 WSW 4 6 2 3 1014.9 1014.0 0.0
27/12:00am 15.8 14.4 8.8 63 3.6 WSW 6 7 3 4 1015.0 1014.1 0.0
 
Date/Time
EST
Temp
°C
App
Temp
°C
Dew
Point
°C
Rel
Hum
%
Delta-T
°C
Wind Press
QNH
hPa
Press
MSL
hPa
Rain since
9am
mm
Dir  Spd
km/h
Gust
km/h
Spd
kts
Gust
kts
26/11:30pm 16.5 15.1 9.0 61 3.9 WSW 6 9 3 5 1015.4 1014.5 0.0
26/11:00pm 15.2 13.8 8.9 66 3.3 WNW 6 9 3 5 1015.5 1014.6 0.0
26/10:30pm 15.8 14.4 8.8 63 3.6 W 6 7 3 4 1015.6 1014.7 0.0
26/10:00pm 16.2 14.8 8.9 62 3.8 WSW 6 9 3 5 1015.5 1014.6 0.0
26/09:30pm 15.5 14.3 9.4 67 3.2 WSW 6 6 3 3 1015.3 1014.4 0.0
26/09:00pm 16.4 15.1 9.3 63 3.7 W 6 6 3 3 1014.9 1014.0 0.0
26/08:30pm 17.6 17.1 9.2 58 4.4 WSW 2 4 1 2 1014.4 1013.5 0.0
26/08:00pm 17.2 16.5 9.9 62 3.9 WSW 4 7 2 4 1014.0 1013.1 0.0
26/07:30pm 19.7 19.3 8.4 48 6.0 CALM 0 0 0 0 1013.2 1012.2 0.0
26/07:00pm 21.6 20.8 6.7 38 7.7 CALM 0 0 0 0 1012.6 1011.6 0.0
26/06:30pm 22.2 21.7 8.0 40 7.5 CALM 0 2 0 1 1012.5 1011.5 0.0
26/06:00pm 24.8 23.8 5.6 29 9.9 CALM 0 0 0 0 1012.4 1011.4 0.0
26/05:30pm 26.6 24.6 4.4 24 11.3 SW 4 7 2 4 1012.3 1011.3 0.0
26/05:00pm 28.0 25.8 6.2 25 11.6 W 7 13 4 7 1012.0 1011.1 0.0
26/04:30pm 27.5 25.3 5.1 24 11.6 SW 6 11 3 6 1011.9 1011.0 0.0
26/04:00pm 28.0 25.9 5.6 24 11.8 W 6 11 3 6 1011.7 1010.8 0.0
26/03:30pm 27.6 25.3 5.8 25 11.5 SW 7 17 4 9 1012.1 1011.2 0.0
26/03:00pm 27.8 25.3 4.8 23 11.9 WSW 7 15 4 8 1012.1 1011.2 0.0
26/02:30pm 27.1 24.7 5.4 25 11.3 SSW 7 17 4 9 1012.4 1011.4 0.0
26/02:00pm 27.0 23.6 5.9 26 11.1 SW 13 24 7 13 1012.7 1011.7 0.0
26/01:30pm 26.9 24.8 5.8 26 11.1 NW 6 11 3 6 1012.9 1011.9 0.0
26/01:00pm 25.4 22.6 5.1 27 10.4 SSW 9 17 5 9 1013.5 1012.5 0.0
26/12:30pm 25.2 22.7 4.9 27 10.4 SW 7 17 4 9 1014.0 1013.1 0.0
26/12:00pm 24.5 22.0 4.8 28 10.0 SSE 7 13 4 7 1014.5 1013.6 0.0
26/11:30am 24.2 22.0 6.0 31 9.4 WSW 7 19 4 10 1015.1 1014.2 0.0
26/11:00am 23.9 21.8 6.7 33 9.0 SSE 7 13 4 7 1015.6 1014.7 0.0
26/10:30am 23.5 22.2 7.6 36 8.4 SSW 4 11 2 6 1015.8 1014.9 0.0
26/10:00am 22.6 20.5 6.0 34 8.5 SSE 6 15 3 8 1016.3 1015.3 0.0
26/09:30am 21.8 20.1 6.1 36 8.0 ESE 4 7 2 4 1016.6 1015.6 0.0
26/09:00am 21.4 20.6 9.6 47 6.4 ESE 4 9 2 5 1016.8 1015.8 0.0
26/08:30am 18.6 17.3 9.1 54 5.0 SSW 6 9 3 5 1016.8 1015.8 0.0
26/08:00am 16.8 15.6 9.5 62 3.9 WSW 6 9 3 5 1016.5 1015.5 0.0
26/07:30am 14.8 14.0 9.6 71 2.7 SSW 4 7 2 4 1016.0 1015.1 0.0
26/07:00am 13.1 12.0 8.6 74 2.3 SSE 4 6 2 3 1015.7 1014.8 0.0
26/06:30am 10.8 10.1 8.4 85 1.2 WSW 2 4 1 2 1015.4 1014.5 0.0
26/06:00am 10.0 8.8 7.9 87 1.0 WSW 4 4 2 2 1015.0 1014.1 0.0
26/05:30am 9.7 8.5 8.0 89 0.8 WNW 4 6 2 3 1014.7 1013.8 0.0
26/05:00am 10.2 9.1 8.6 90 0.8 W 4 4 2 2 1014.1 1013.2 0.0
26/04:30am 10.4 9.4 8.7 89 0.8 WSW 4 6 2 3 1013.6 1012.6 0.0
26/04:00am 10.3 9.2 8.6 89 0.8 WNW 4 6 2 3 1013.5 1012.5 0.0
26/03:30am 10.9 9.9 9.0 88 1.0 WSW 4 6 2 3 1013.3 1012.3 0.0
26/03:00am 11.0 9.6 8.8 86 1.1 WNW 6 6 3 3 1013.3 1012.3 0.0
26/02:30am 11.8 11.0 8.3 79 1.7 W 2 4 1 2 1013.3 1012.3 0.0
26/02:00am 12.4 11.7 8.7 78 1.9 W 2 4 1 2 1013.4 1012.4 0.0
26/01:30am 12.5 12.3 9.0 79 1.8 CALM 0 0 0 0 1013.6 1012.6 0.0
26/01:00am 13.5 13.5 9.7 78 2.0 CALM 0 0 0 0 1013.7 1012.7 0.0
26/12:30am 13.8 13.3 9.3 74 2.3 W 2 2 1 1 1013.5 1012.5 0.0
26/12:00am 14.5 13.2 9.3 71 2.7 WSW 6 7 3 4 1013.5 1012.5 0.0
 
Date/Time
EST
Temp
°C
App
Temp
°C
Dew
Point
°C
Rel
Hum
%
Delta-T
°C
Wind Press
QNH
hPa
Press
MSL
hPa
Rain since
9am
mm
Dir  Spd
km/h
Gust
km/h
Spd
kts
Gust
kts
25/11:30pm 14.2 13.3 9.2 72 2.6 W 4 6 2 3 1013.7 1012.7 0.0
25/11:00pm 15.3 15.3 9.9 70 2.9 CALM 0 0 0 0 1013.8 1012.8 0.0
25/10:30pm 16.1 15.6 9.5 65 3.5 SSW 2 6 1 3 1013.8 1012.8 0.0
25/10:00pm 16.9 16.6 10.1 64 3.6 WSW 2 2 1 1 1013.9 1012.9 0.0
25/09:30pm 17.8 16.7 9.9 60 4.2 WSW 6 9 3 5 1013.7 1012.7 0.0
25/09:00pm 19.0 18.0 10.3 57 4.7 SW 6 9 3 5 1013.6 1012.6 0.0
25/08:30pm 19.7 19.1 10.4 55 5.1 WSW 4 7 2 4 1013.4 1012.4 0.0
25/08:00pm 20.8 20.0 11.2 54 5.4 SSW 6 11 3 6 1012.8 1011.8 0.0
25/07:30pm 21.6 20.9 11.3 52 5.8 SSW 6 11 3 6 1012.1 1011.2 0.0
25/07:00pm 22.5 22.0 10.6 47 6.6 SSW 4 6 2 3 1011.6 1010.7 0.0
25/06:30pm 24.5 22.7 9.6 39 8.2 WSW 9 15 5 8 1011.1 1010.2 0.0
25/06:00pm 25.9 23.8 9.7 36 9.0 WSW 11 20 6 11 1010.6 1009.6 0.0
25/05:30pm 27.6 24.8 9.9 33 10.0 WSW 15 24 8 13 1010.1 1009.1 0.0
25/05:00pm 28.6 25.5 10.3 32 10.5 W 17 24 9 13 1009.7 1008.7 0.0
25/04:30pm 29.1 25.7 10.7 32 10.6 WSW 19 26 10 14 1009.5 1008.5 0.0
25/04:00pm 29.3 26.0 10.9 32 10.7 WSW 19 28 10 15 1009.3 1008.3 0.0
25/03:30pm 29.5 25.7 11.1 32 10.7 W 22 33 12 18 1009.3 1008.3 0.0
25/03:00pm 29.6 26.2 10.7 31 10.9 W 19 33 10 18 1009.1 1008.1 0.0
25/02:30pm 29.6 25.4 11.2 32 10.7 W 24 39 13 21 1009.3 1008.3 0.0
25/02:00pm 29.3 25.7 10.4 31 10.9 W 20 33 11 18 1009.7 1008.7 0.0
25/01:30pm 29.2 26.6 10.8 32 10.6 WSW 15 22 8 12 1010.0 1009.0 0.0
25/01:00pm 29.0 27.1 10.6 32 10.6 W 11 24 6 13 1010.3 1009.3 0.0
25/12:30pm 28.6 27.2 10.8 33 10.2 W 9 20 5 11 1010.6 1009.6 0.0
25/12:00pm 28.2 25.8 9.9 32 10.4 W 13 20 7 11 1010.9 1010.0 0.0
25/11:30am 27.6 24.8 9.9 33 10.0 WSW 15 26 8 14 1011.6 1010.7 0.0
25/11:00am 27.3 24.5 10.1 34 9.7 WSW 15 26 8 14 1011.8 1010.9 0.0
25/10:30am 27.4 25.5 10.6 35 9.6 WSW 11 19 6 10 1012.0 1011.1 0.0
25/10:00am 26.1 24.2 9.0 34 9.4 WSW 9 13 5 7 1012.1 1011.2 0.0
25/09:30am 26.0 24.6 9.4 35 9.2 WNW 7 9 4 5 1011.8 1010.9 0.0
25/09:00am 23.9 22.7 9.5 40 7.9 NW 6 9 3 5 1011.8 1010.9 0.0
25/08:30am 22.7 22.4 12.6 53 5.8 W 6 7 3 4 1012.3 1011.3 0.0
25/08:00am 20.1 20.5 12.6 62 4.3 W 2 7 1 4 1011.8 1010.9 0.0
25/07:30am 18.9 19.9 13.3 70 3.2 CALM 0 0 0 0 1011.8 1010.9 0.0
25/07:00am 15.4 15.7 11.0 75 2.4 CALM 0 0 0 0 1011.4 1010.5 0.0
25/06:30am 13.7 14.0 11.0 84 1.4 CALM 0 0 0 0 1011.3 1010.4 0.0
25/06:00am 13.3 13.4 10.1 81 1.7 CALM 0 0 0 0 1011.2 1010.3 0.0
25/05:30am 13.2 12.8 9.8 80 1.8 W 2 4 1 2 1011.1 1010.2 0.0
25/05:00am 13.3 12.3 10.3 82 1.6 SW 6 9 3 5 1010.7 1009.8 0.0
25/04:30am 13.8 13.0 11.0 83 1.5 NW 6 7 3 4 1009.7 1008.7 0.0
25/04:00am 13.5 12.6 10.7 83 1.5 NW 6 7 3 4 1009.5 1008.5 0.0
25/03:30am 12.9 12.3 10.4 85 1.3 W 4 6 2 3 1009.5 1008.5 0.0
25/03:00am 14.0 13.5 10.8 81 1.7 SSW 4 7 2 4 1009.9 1008.9 0.0
25/02:30am 13.6 13.7 10.2 80 1.8 CALM 0 0 0 0 1009.1 1008.1 0.0
25/02:00am 14.9 14.5 9.9 72 2.6 E 2 4 1 2 1009.2 1008.2 0.0
25/01:30am 15.3 15.1 10.5 73 2.6 WNW 2 4 1 2 1009.1 1008.1 0.0
25/01:00am 15.9 15.2 10.2 69 3.0 W 4 6 2 3 1009.4 1008.4 0.0
25/12:30am 16.2 16.1 10.7 70 3.0 WSW 2 2 1 1 1009.6 1008.6 0.0
25/12:00am 15.8 15.4 11.0 73 2.6 SW 4 6 2 3 1009.9 1008.9 0.0
 
Date/Time
EST
Temp
°C
App
Temp
°C
Dew
Point
°C
Rel
Hum
%
Delta-T
°C
Wind Press
QNH
hPa
Press
MSL
hPa
Rain since
9am
mm
Dir  Spd
km/h
Gust
km/h
Spd
kts
Gust
kts
24/11:30pm 16.9 16.3 10.5 66 3.5 WSW 4 6 2 3 1010.1 1009.1 0.0
24/11:00pm 16.6 16.1 10.9 69 3.1 WSW 4 7 2 4 1010.2 1009.2 0.0
24/10:30pm 16.9 16.4 10.7 67 3.4 W 4 4 2 2 1010.2 1009.2 0.0
24/10:00pm 17.9 17.1 11.0 64 3.8 WSW 6 6 3 3 1010.3 1009.3 0.0
24/09:30pm 17.5 16.9 11.8 69 3.2 W 6 7 3 4 1010.2 1009.2 0.0
24/09:00pm 18.6 18.4 11.7 64 3.8 SW 4 6 2 3 1010.1 1009.1 0.0
24/08:30pm 19.7 20.1 11.2 58 4.7 CALM 0 0 0 0 1009.7 1008.7 0.0
24/08:00pm 20.4 20.5 10.2 52 5.6 CALM 0 0 0 0 1009.5 1008.5 0.0
24/07:30pm 21.1 20.6 10.6 51 5.8 WNW 4 4 2 2 1009.2 1008.2 0.0
24/07:00pm 23.4 22.2 9.4 41 7.7 WSW 6 7 3 4 1008.9 1007.9 0.0
24/06:30pm 25.2 23.6 8.7 35 9.0 WSW 7 11 4 6 1008.6 1007.6 0.0
24/06:00pm 26.9 25.2 8.4 31 10.2 WSW 7 11 4 6 1008.4 1007.4 0.0
24/05:30pm 28.6 25.6 7.8 27 11.4 W 13 24 7 13 1008.0 1007.1 0.0
24/05:00pm 29.4 26.1 9.5 29 11.3 W 17 24 9 13 1007.8 1006.9 0.0

Other Formats:

Comma delimited format used in spreadsheet applications
http://www.bom.gov.au/fwo/IDQ60801/IDQ60801.94399.axf

JavaScript Object Notation format (JSON) in row-major order
http://www.bom.gov.au/fwo/IDQ60801/IDQ60801.94399.json